createdAt,value
2022-08-07T00:01:44.631Z,7.70
2022-08-07T00:06:29.258Z,4.25
2022-08-07T00:11:48.049Z,4.90
2022-08-07T00:17:00.146Z,6.70
2022-08-07T00:22:04.980Z,7.65
2022-08-07T00:27:10.309Z,6.38
2022-08-07T00:32:14.364Z,8.30
2022-08-07T00:37:17.972Z,8.77
2022-08-07T00:42:25.507Z,6.10
2022-08-07T00:48:09.839Z,9.73
2022-08-07T00:52:55.687Z,7.68
2022-08-07T00:58:00.366Z,5.40
2022-08-07T01:03:03.776Z,6.35
2022-08-07T01:08:09.384Z,10.75
2022-08-07T01:13:16.314Z,7.25
2022-08-07T01:18:20.307Z,8.38
2022-08-07T01:23:38.104Z,7.13
2022-08-07T01:28:46.202Z,7.20
2022-08-07T01:33:55.643Z,6.80
2022-08-07T01:39:03.133Z,8.02
2022-08-07T01:44:13.105Z,6.80
2022-08-07T01:49:16.247Z,5.82
2022-08-07T01:54:33.299Z,7.75
2022-08-07T01:59:45.242Z,6.78
2022-08-07T02:04:56.669Z,8.38
2022-08-07T02:10:03.252Z,6.03
2022-08-07T02:15:08.629Z,6.43
2022-08-07T02:20:19.835Z,10.05
2022-08-07T02:26:10.618Z,8.65
2022-08-07T02:30:55.297Z,8.88
2022-08-07T02:36:28.520Z,7.97
2022-08-07T02:41:33.462Z,8.45
2022-08-07T02:46:46.730Z,9.43
2022-08-07T02:51:57.652Z,9.10
2022-08-07T02:57:03.645Z,6.72
2022-08-07T03:02:10.553Z,7.30
2022-08-07T03:07:15.041Z,8.38
2022-08-07T03:12:22.473Z,8.88
2022-08-07T03:17:36.446Z,7.60
2022-08-07T03:22:58.848Z,10.77
2022-08-07T03:28:09.575Z,9.95
2022-08-07T03:33:32.235Z,11.10
2022-08-07T03:38:44.273Z,41.95
2022-08-07T03:43:56.909Z,13.57
2022-08-07T03:49:02.522Z,16.63
2022-08-07T03:54:35.377Z,7.90
2022-08-07T03:59:32.849Z,9.15
2022-08-07T04:04:35.958Z,8.88
2022-08-07T04:09:45.494Z,7.68
2022-08-07T04:14:56.304Z,6.28
2022-08-07T04:19:59.545Z,4.63
2022-08-07T04:25:11.776Z,4.50
2022-08-07T04:30:35.474Z,10.40
2022-08-07T04:35:42.107Z,6.68
2022-08-07T04:40:52.773Z,7.40
2022-08-07T04:46:04.232Z,4.93
2022-08-07T04:51:11.613Z,5.53
2022-08-07T04:58:11.763Z,4.32
2022-08-07T05:01:57.636Z,4.75
2022-08-07T05:07:09.679Z,5.60
2022-08-07T05:12:30.678Z,5.15
2022-08-07T05:17:50.795Z,6.85
2022-08-07T05:23:02.370Z,3.42
2022-08-07T05:28:20.613Z,3.67
2022-08-07T05:33:28.948Z,4.22
2022-08-07T05:38:59.763Z,5.00
2022-08-07T05:44:08.182Z,9.68
2022-08-07T05:49:18.041Z,4.85
2022-08-07T05:54:30.959Z,5.45
2022-08-07T05:59:57.143Z,2.90
2022-08-07T06:05:07.453Z,4.60
2022-08-07T06:10:15.285Z,5.32
2022-08-07T06:15:20.810Z,5.22
2022-08-07T06:20:49.350Z,3.72
2022-08-07T06:25:54.371Z,4.63
2022-08-07T06:31:00.306Z,4.45
2022-08-07T06:36:11.861Z,2.00
2022-08-07T06:41:59.146Z,3.63
2022-08-07T06:46:53.667Z,3.55
2022-08-07T06:52:17.587Z,3.35
2022-08-07T06:57:43.745Z,4.72
2022-08-07T07:02:57.448Z,6.43
2022-08-07T07:08:06.806Z,2.88
2022-08-07T07:18:47.753Z,4.43
2022-08-07T07:24:11.295Z,5.50
2022-08-07T07:29:56.258Z,5.88
2022-08-07T07:34:44.665Z,3.35
2022-08-07T07:39:55.401Z,3.47
2022-08-07T07:45:02.310Z,3.90
2022-08-07T07:50:36.312Z,3.72
2022-08-07T07:55:37.840Z,2.25
2022-08-07T08:00:53.795Z,2.15
2022-08-07T08:05:57.743Z,6.40
2022-08-07T08:11:03.762Z,3.35
2022-08-07T08:16:12.547Z,3.00
2022-08-07T08:21:55.963Z,2.35
2022-08-07T08:27:12.216Z,3.50
2022-08-07T08:32:25.098Z,1.63
2022-08-07T08:38:01.735Z,0.95
2022-08-07T08:43:07.448Z,3.00
2022-08-07T08:48:28.299Z,4.07
2022-08-07T08:53:39.470Z,2.95
2022-08-07T08:58:54.550Z,3.40
2022-08-07T09:04:13.467Z,2.00
2022-08-07T09:09:36.528Z,4.03
2022-08-07T09:14:58.563Z,3.15
2022-08-07T09:20:35.382Z,4.82
2022-08-07T09:25:54.289Z,3.30
2022-08-07T09:31:04.059Z,3.97
2022-08-07T09:36:13.986Z,2.72
2022-08-07T09:41:27.794Z,2.22
2022-08-07T09:47:50.342Z,2.28
2022-08-07T09:52:33.594Z,2.13
2022-08-07T09:58:07.364Z,1.88
2022-08-07T10:04:06.535Z,1.67
2022-08-07T10:09:15.646Z,1.50
2022-08-07T10:14:41.009Z,2.97
2022-08-07T10:19:58.367Z,1.40
2022-08-07T10:25:13.578Z,1.90
2022-08-07T10:30:19.241Z,3.22
2022-08-07T10:35:56.028Z,2.30
2022-08-07T10:41:02.723Z,3.63
2022-08-07T10:46:10.284Z,2.60
2022-08-07T10:51:39.113Z,3.65
2022-08-07T10:56:54.802Z,2.15
2022-08-07T11:02:11.934Z,1.90
2022-08-07T11:08:00.273Z,4.13
2022-08-07T11:13:16.896Z,1.95
2022-08-07T11:18:38.978Z,2.15
2022-08-07T11:23:55.756Z,1.85
2022-08-07T11:29:13.093Z,3.38
2022-08-07T11:34:37.181Z,2.45
2022-08-07T11:40:03.524Z,2.63
2022-08-07T11:45:20.551Z,0.80
2022-08-07T11:50:57.231Z,1.65
2022-08-07T11:56:26.799Z,4.53
2022-08-07T12:01:59.512Z,1.35
2022-08-07T12:07:23.595Z,2.55
2022-08-07T12:12:38.390Z,1.35
2022-08-07T12:17:55.969Z,1.65
2022-08-07T12:24:04.935Z,1.40
2022-08-07T12:29:04.339Z,1.95
2022-08-07T12:34:11.185Z,1.42
2022-08-07T12:39:43.001Z,2.42
2022-08-07T12:44:42.945Z,2.55
2022-08-07T12:50:04.521Z,2.42
2022-08-07T12:55:16.485Z,1.95
2022-08-07T13:00:32.818Z,1.77
2022-08-07T13:06:02.787Z,1.20
2022-08-07T13:11:19.849Z,2.53
2022-08-07T13:16:31.492Z,1.98
2022-08-07T13:27:14.933Z,5.20
2022-08-07T13:32:35.054Z,2.72
2022-08-07T13:37:55.373Z,1.70
2022-08-07T13:43:11.825Z,3.63
2022-08-07T13:48:27.779Z,1.98
2022-08-07T13:54:00.454Z,1.75
2022-08-07T13:59:10.253Z,2.10
2022-08-07T14:04:21.499Z,1.10
2022-08-07T14:10:17.420Z,1.55
2022-08-07T14:15:02.173Z,3.88
2022-08-07T14:20:39.811Z,2.33
2022-08-07T14:25:46.148Z,0.85
2022-08-07T14:30:52.530Z,1.08
2022-08-07T14:35:59.996Z,1.98
2022-08-07T14:41:12.127Z,0.85
2022-08-07T14:46:23.648Z,2.22
2022-08-07T14:52:03.639Z,0.95
2022-08-07T14:57:05.563Z,2.67
2022-08-07T15:02:31.699Z,1.52
2022-08-07T15:07:51.266Z,3.42
2022-08-07T15:13:06.105Z,2.45
2022-08-07T15:25:16.312Z,1.25
2022-08-07T15:30:10.102Z,2.05
2022-08-07T15:34:26.973Z,1.40
2022-08-07T15:39:57.799Z,3.40
2022-08-07T15:45:00.358Z,2.40
2022-08-07T15:50:06.924Z,0.63
2022-08-07T15:55:14.745Z,0.70
2022-08-07T16:00:31.847Z,3.38
2022-08-07T16:05:38.238Z,1.05
2022-08-07T16:10:48.723Z,1.25
2022-08-07T16:16:06.959Z,2.50
2022-08-07T16:21:44.113Z,2.15
2022-08-07T16:27:17.880Z,2.28
2022-08-07T16:32:33.028Z,2.43
2022-08-07T16:38:44.427Z,4.55
2022-08-07T16:44:47.011Z,3.40
2022-08-07T16:50:36.302Z,2.35
2022-08-07T16:55:53.050Z,4.00
2022-08-07T17:01:16.517Z,4.15
2022-08-07T17:06:46.533Z,1.38
2022-08-07T17:12:05.053Z,2.17
2022-08-07T17:17:46.041Z,3.60
2022-08-07T17:23:00.218Z,2.60
2022-08-07T17:28:10.149Z,2.35
2022-08-07T17:34:10.122Z,1.77
2022-08-07T17:38:52.329Z,1.77
2022-08-07T17:44:05.740Z,3.10
2022-08-07T17:49:23.208Z,3.42
2022-08-07T17:54:39.899Z,7.03
2022-08-07T18:00:01.912Z,3.65
2022-08-07T18:05:21.913Z,4.00
2022-08-07T18:10:33.663Z,7.03
2022-08-07T18:15:51.826Z,4.43
2022-08-07T18:21:42.000Z,3.00
2022-08-07T18:26:40.646Z,1.67
2022-08-07T18:31:59.849Z,4.50
2022-08-07T18:38:57.298Z,1.95
2022-08-07T18:42:58.189Z,5.05
2022-08-07T18:48:10.317Z,7.55
2022-08-07T18:53:56.129Z,6.57
2022-08-07T18:59:09.833Z,6.30
2022-08-07T19:04:59.421Z,10.60
2022-08-07T19:10:21.296Z,8.65
2022-08-07T19:16:05.169Z,11.77
2022-08-07T19:21:09.145Z,9.47
2022-08-07T19:26:22.608Z,6.63
2022-08-07T19:32:03.453Z,8.05
2022-08-07T19:37:09.909Z,8.95
2022-08-07T19:42:25.027Z,9.38
2022-08-07T19:47:36.400Z,7.82
2022-08-07T19:52:41.967Z,14.15
2022-08-07T19:58:04.682Z,10.85
2022-08-07T20:03:35.687Z,10.77
2022-08-07T20:08:48.697Z,14.98
2022-08-07T20:13:58.420Z,18.10
2022-08-07T20:19:04.788Z,17.38
2022-08-07T20:24:15.058Z,17.95
2022-08-07T20:29:48.906Z,17.83
2022-08-07T20:34:51.667Z,18.30
2022-08-07T20:40:03.936Z,17.45
2022-08-07T20:45:33.602Z,15.88
2022-08-07T20:50:36.715Z,13.98
2022-08-07T20:55:41.491Z,16.13
2022-08-07T21:00:52.422Z,12.80
2022-08-07T21:06:03.809Z,13.25
2022-08-07T21:11:40.145Z,14.23
2022-08-07T21:18:00.412Z,13.10
2022-08-07T21:22:25.515Z,12.52
2022-08-07T21:27:46.987Z,14.15
2022-08-07T21:33:01.096Z,15.25
2022-08-07T21:38:19.612Z,16.10
2022-08-07T21:43:47.576Z,15.57
2022-08-07T21:49:14.953Z,18.48
2022-08-07T21:54:27.860Z,14.30
2022-08-07T22:00:04.873Z,15.43
2022-08-07T22:05:08.193Z,17.42
2022-08-07T22:10:28.626Z,14.73
2022-08-07T22:16:44.090Z,24.52
2022-08-07T22:21:16.645Z,22.08
2022-08-07T22:26:31.361Z,21.05
2022-08-07T22:31:56.016Z,16.98
2022-08-07T22:37:14.861Z,17.88
2022-08-07T22:42:26.077Z,18.88
2022-08-07T22:48:04.200Z,16.85
2022-08-07T22:54:08.867Z,14.23
2022-08-07T22:59:32.713Z,17.85
2022-08-07T23:06:07.396Z,14.32
2022-08-07T23:10:41.330Z,15.18
2022-08-07T23:16:05.639Z,14.38
2022-08-07T23:21:30.491Z,15.63
2022-08-07T23:26:54.820Z,13.20
2022-08-07T23:34:18.929Z,11.65
2022-08-07T23:38:01.341Z,12.15
2022-08-07T23:43:21.548Z,14.88
2022-08-07T23:48:41.116Z,15.38
2022-08-07T23:53:51.000Z,13.00
